createdAt,value
2018-08-22T00:00:41.470Z,950.44
2018-08-22T00:01:41.382Z,950.41
2018-08-22T00:02:41.285Z,950.44
2018-08-22T00:03:41.193Z,950.41
2018-08-22T00:04:41.121Z,950.42
2018-08-22T00:05:41.016Z,950.36
2018-08-22T00:06:40.923Z,950.38
2018-08-22T00:07:40.835Z,950.36
2018-08-22T00:08:40.743Z,950.34
2018-08-22T00:09:40.669Z,950.31
2018-08-22T00:10:40.664Z,950.32
2018-08-22T00:11:40.474Z,950.32
2018-08-22T00:12:40.384Z,950.33
2018-08-22T00:13:40.293Z,950.29
2018-08-22T00:14:40.217Z,950.31
2018-08-22T00:15:40.112Z,950.30
2018-08-22T00:16:40.024Z,950.28
2018-08-22T00:17:39.932Z,950.31
2018-08-22T00:18:39.843Z,950.31
2018-08-22T00:19:39.768Z,950.27
2018-08-22T00:20:39.663Z,950.27
2018-08-22T00:21:39.572Z,950.30
2018-08-22T00:22:39.482Z,950.27
2018-08-22T00:23:39.392Z,950.30
2018-08-22T00:24:39.421Z,950.27
2018-08-22T00:25:39.212Z,950.27
2018-08-22T00:26:39.131Z,950.27
2018-08-22T00:27:39.030Z,950.27
2018-08-22T00:28:38.942Z,950.28
2018-08-22T00:29:38.871Z,950.26
2018-08-22T00:30:38.763Z,950.28
2018-08-22T00:31:38.770Z,950.28
2018-08-22T00:32:38.580Z,950.28
2018-08-22T00:33:38.501Z,950.26
2018-08-22T00:34:38.423Z,950.24
2018-08-22T00:35:38.311Z,950.31
2018-08-22T00:36:38.221Z,950.27
2018-08-22T00:37:38.134Z,950.30
2018-08-22T00:38:38.141Z,950.24
2018-08-22T00:39:37.974Z,950.26
2018-08-22T00:40:37.861Z,950.30
2018-08-22T00:41:37.774Z,950.26
2018-08-22T00:42:37.681Z,950.28
2018-08-22T00:43:37.590Z,950.22
2018-08-22T00:44:37.519Z,950.24
2018-08-22T00:45:37.518Z,950.27
2018-08-22T00:46:37.320Z,950.22
2018-08-22T00:47:37.233Z,950.22
2018-08-22T00:48:37.142Z,950.25
2018-08-22T00:49:37.069Z,950.24
2018-08-22T00:50:36.961Z,950.22
2018-08-22T00:51:36.874Z,950.20
2018-08-22T00:52:36.883Z,950.19
2018-08-22T00:53:36.692Z,950.20
2018-08-22T00:54:36.619Z,950.20
2018-08-22T00:55:36.515Z,950.14
2018-08-22T00:56:36.421Z,950.19
2018-08-22T00:57:36.331Z,950.16
2018-08-22T00:58:36.241Z,950.21
2018-08-22T00:59:36.263Z,950.21
2018-08-22T01:00:36.063Z,950.21
2018-08-22T01:01:35.974Z,950.16
2018-08-22T01:02:35.879Z,950.14
2018-08-22T01:03:35.789Z,950.15
2018-08-22T01:04:35.716Z,950.14
2018-08-22T01:05:35.612Z,950.12
2018-08-22T01:06:35.618Z,950.09
2018-08-22T01:07:35.427Z,950.14
2018-08-22T01:08:35.338Z,950.10
2018-08-22T01:09:35.281Z,950.09
2018-08-22T01:10:35.158Z,950.04
2018-08-22T01:11:35.067Z,950.11
2018-08-22T01:12:34.981Z,950.07
2018-08-22T01:13:34.989Z,950.07
2018-08-22T01:14:34.814Z,950.07
2018-08-22T01:15:34.713Z,950.10
2018-08-22T01:16:34.616Z,950.07
2018-08-22T01:17:34.523Z,950.10
2018-08-22T01:18:34.438Z,950.11
2018-08-22T01:19:34.361Z,950.09
2018-08-22T01:20:34.370Z,950.08
2018-08-22T01:21:34.162Z,950.14
2018-08-22T01:22:34.073Z,950.11
2018-08-22T01:23:33.982Z,950.13
2018-08-22T01:24:33.894Z,950.17
2018-08-22T01:25:33.818Z,950.16
2018-08-22T01:26:33.708Z,950.17
2018-08-22T01:27:33.726Z,950.19
2018-08-22T01:28:33.529Z,950.20
2018-08-22T01:29:33.440Z,950.20
2018-08-22T01:30:33.366Z,950.19
2018-08-22T01:31:33.256Z,950.18
2018-08-22T01:32:33.169Z,950.16
2018-08-22T01:33:33.080Z,950.13
2018-08-22T01:34:32.985Z,950.16
2018-08-22T01:35:32.912Z,950.11
2018-08-22T01:36:32.804Z,950.13
2018-08-22T01:37:32.715Z,950.11
2018-08-22T01:38:32.624Z,950.08
2018-08-22T01:39:32.536Z,950.08
2018-08-22T01:40:32.473Z,950.09
2018-08-22T01:41:32.352Z,950.07
2018-08-22T01:42:32.258Z,950.08
2018-08-22T01:43:32.168Z,950.12
2018-08-22T01:44:32.080Z,950.07
2018-08-22T01:45:32.010Z,950.08
2018-08-22T01:46:31.895Z,950.07
2018-08-22T01:47:31.905Z,950.05
2018-08-22T01:48:31.718Z,950.08
2018-08-22T01:49:31.626Z,950.07
2018-08-22T01:50:31.555Z,950.10
2018-08-22T01:51:31.440Z,950.09
2018-08-22T01:52:31.349Z,950.12
2018-08-22T01:53:31.261Z,950.15
2018-08-22T01:54:31.170Z,950.11
2018-08-22T01:55:31.099Z,950.12
2018-08-22T01:56:30.987Z,950.15
2018-08-22T01:57:30.898Z,950.13
2018-08-22T01:58:30.807Z,950.14
2018-08-22T01:59:30.717Z,950.10
2018-08-22T02:00:30.643Z,950.11
2018-08-22T02:01:30.533Z,950.17
2018-08-22T02:02:30.444Z,950.11
2018-08-22T02:03:30.351Z,950.15
2018-08-22T02:04:30.263Z,950.09
2018-08-22T02:05:30.190Z,950.13
2018-08-22T02:06:30.080Z,950.12
2018-08-22T02:07:29.989Z,950.07
2018-08-22T02:08:29.903Z,950.08
2018-08-22T02:09:29.809Z,950.08
2018-08-22T02:10:29.732Z,950.04
2018-08-22T02:11:29.625Z,950.03
2018-08-22T02:12:29.536Z,950.07
2018-08-22T02:13:29.443Z,950.02
2018-08-22T02:14:29.355Z,950.03
2018-08-22T02:15:29.278Z,949.98
2018-08-22T02:16:29.172Z,949.97
2018-08-22T02:17:29.084Z,949.99
2018-08-22T02:18:28.987Z,949.92
2018-08-22T02:19:28.897Z,949.93
2018-08-22T02:20:28.826Z,949.91
2018-08-22T02:21:28.717Z,949.91
2018-08-22T02:22:28.625Z,949.93
2018-08-22T02:23:28.535Z,949.97
2018-08-22T02:24:28.443Z,949.99
2018-08-22T02:25:28.372Z,949.94
2018-08-22T02:26:28.266Z,949.96
2018-08-22T02:27:28.173Z,949.97
2018-08-22T02:28:28.079Z,949.91
2018-08-22T02:29:27.992Z,949.93
2018-08-22T02:30:27.919Z,949.92
2018-08-22T02:31:27.825Z,949.90
2018-08-22T02:32:27.717Z,949.93
2018-08-22T02:33:27.627Z,949.91
2018-08-22T02:34:27.537Z,949.92
2018-08-22T02:35:27.466Z,949.94
2018-08-22T02:36:27.352Z,949.92
2018-08-22T02:37:27.264Z,949.96
2018-08-22T02:38:27.171Z,949.92
2018-08-22T02:39:27.081Z,949.93
2018-08-22T02:40:27.006Z,949.92
2018-08-22T02:41:26.898Z,949.95
2018-08-22T02:42:26.809Z,949.90
2018-08-22T02:43:26.716Z,949.94
2018-08-22T02:44:26.625Z,949.91
2018-08-22T02:45:26.554Z,949.88
2018-08-22T02:46:26.442Z,949.88
2018-08-22T02:47:26.352Z,949.91
2018-08-22T02:48:26.263Z,949.91
2018-08-22T02:49:26.177Z,949.93
2018-08-22T02:50:26.099Z,949.94
2018-08-22T02:51:25.991Z,949.94
2018-08-22T02:52:25.899Z,949.96
2018-08-22T02:53:25.810Z,949.93
2018-08-22T02:54:25.715Z,949.93
2018-08-22T02:55:25.638Z,949.99
2018-08-22T02:56:25.536Z,949.99
2018-08-22T02:57:25.549Z,950.01
2018-08-22T02:58:25.350Z,949.96
2018-08-22T02:59:25.263Z,949.93
2018-08-22T03:00:25.187Z,949.97
2018-08-22T03:01:25.083Z,949.93
2018-08-22T03:02:24.988Z,949.94
2018-08-22T03:03:24.915Z,949.93
2018-08-22T03:04:24.806Z,949.87
2018-08-22T03:05:24.731Z,949.86
2018-08-22T03:06:24.624Z,949.83
2018-08-22T03:07:24.539Z,949.82
2018-08-22T03:08:24.449Z,949.74
2018-08-22T03:09:24.352Z,949.76
2018-08-22T03:10:24.267Z,949.76
2018-08-22T03:11:24.285Z,949.75
2018-08-22T03:12:24.078Z,949.70
2018-08-22T03:13:24.006Z,949.71
2018-08-22T03:14:23.893Z,949.70
2018-08-22T03:15:23.817Z,949.71
2018-08-22T03:16:23.715Z,949.68
2018-08-22T03:17:23.621Z,949.67
2018-08-22T03:18:23.627Z,949.72
2018-08-22T03:19:23.436Z,949.71
2018-08-22T03:20:23.355Z,949.73
2018-08-22T03:21:23.275Z,949.77
2018-08-22T03:22:23.163Z,949.76
2018-08-22T03:23:23.099Z,949.75
2018-08-22T03:24:22.983Z,949.75
2018-08-22T03:25:22.995Z,949.77
2018-08-22T03:26:22.817Z,949.78
2018-08-22T03:27:22.710Z,949.77
2018-08-22T03:28:22.620Z,949.77
2018-08-22T03:29:22.529Z,949.78
2018-08-22T03:30:22.437Z,949.82
2018-08-22T03:31:22.359Z,949.84
2018-08-22T03:32:22.354Z,949.78
2018-08-22T03:33:22.163Z,949.80
2018-08-22T03:34:22.070Z,949.83
2018-08-22T03:35:21.981Z,949.85
2018-08-22T03:36:21.912Z,949.85
2018-08-22T03:37:21.800Z,949.80
2018-08-22T03:38:21.712Z,949.81
2018-08-22T03:39:21.716Z,949.85
2018-08-22T03:40:21.523Z,949.81
2018-08-22T03:41:21.453Z,949.79
2018-08-22T03:42:21.346Z,949.80
2018-08-22T03:43:21.259Z,949.80
2018-08-22T03:44:21.184Z,949.79
2018-08-22T03:45:21.077Z,949.76
2018-08-22T03:46:21.102Z,949.78
2018-08-22T03:47:20.890Z,949.72
2018-08-22T03:48:20.799Z,949.70
2018-08-22T03:49:20.715Z,949.72
2018-08-22T03:50:20.618Z,949.70
2018-08-22T03:51:20.545Z,949.74
2018-08-22T03:52:20.438Z,949.74
2018-08-22T03:53:20.447Z,949.69
2018-08-22T03:54:20.257Z,949.73
2018-08-22T03:55:20.163Z,949.73
2018-08-22T03:56:20.105Z,949.71
2018-08-22T03:57:19.983Z,949.73
2018-08-22T03:58:19.892Z,949.72
2018-08-22T03:59:19.807Z,949.65
2018-08-22T04:00:19.812Z,949.71
2018-08-22T04:01:19.636Z,949.65
2018-08-22T04:02:19.528Z,949.68
2018-08-22T04:03:19.439Z,949.66
2018-08-22T04:04:19.348Z,949.73
2018-08-22T04:05:19.256Z,949.75
2018-08-22T04:06:19.186Z,949.72
2018-08-22T04:07:19.077Z,949.70
2018-08-22T04:08:18.986Z,949.78
2018-08-22T04:09:18.898Z,949.77
2018-08-22T04:10:18.807Z,949.74
2018-08-22T04:11:18.732Z,949.72
2018-08-22T04:12:18.629Z,949.73
2018-08-22T04:13:18.536Z,949.75
2018-08-22T04:14:18.446Z,949.72
2018-08-22T04:15:18.354Z,949.70
2018-08-22T04:16:18.281Z,949.72
2018-08-22T04:17:18.178Z,949.74
2018-08-22T04:18:18.090Z,949.73
2018-08-22T04:19:17.997Z,949.78
2018-08-22T04:20:17.905Z,949.74
2018-08-22T04:21:17.828Z,949.77
2018-08-22T04:22:17.720Z,949.74
2018-08-22T04:23:17.634Z,949.80
2018-08-22T04:24:17.539Z,949.80
2018-08-22T04:25:17.451Z,949.81
2018-08-22T04:26:17.377Z,949.81
2018-08-22T04:27:17.286Z,949.90
2018-08-22T04:28:17.181Z,949.87
2018-08-22T04:29:17.095Z,949.80
2018-08-22T04:30:17.004Z,949.79
2018-08-22T04:31:16.923Z,949.78
2018-08-22T04:32:16.822Z,949.82
2018-08-22T04:33:16.730Z,949.81
2018-08-22T04:34:16.636Z,949.79
2018-08-22T04:35:16.549Z,949.76
2018-08-22T04:36:16.470Z,949.74
2018-08-22T04:37:16.417Z,949.85
2018-08-22T04:38:16.273Z,949.77
2018-08-22T04:39:16.191Z,949.82
2018-08-22T04:40:16.097Z,949.82
2018-08-22T04:41:16.027Z,949.80
2018-08-22T04:42:15.916Z,949.85
2018-08-22T04:43:15.828Z,949.81
2018-08-22T04:44:15.737Z,949.84
2018-08-22T04:45:15.647Z,949.82
2018-08-22T04:46:15.575Z,949.85
2018-08-22T04:47:15.466Z,949.87
2018-08-22T04:48:15.405Z,949.84
2018-08-22T04:49:15.597Z,949.86
2018-08-22T04:50:15.196Z,949.90
2018-08-22T04:51:15.110Z,949.91
2018-08-22T04:52:15.032Z,949.92
2018-08-22T04:53:14.929Z,949.89
2018-08-22T04:54:14.838Z,949.95
2018-08-22T04:55:14.749Z,949.91
2018-08-22T04:56:14.772Z,949.91
2018-08-22T04:57:14.565Z,949.92
2018-08-22T04:58:14.475Z,949.86
2018-08-22T04:59:14.386Z,949.86
2018-08-22T05:00:14.297Z,949.90
2018-08-22T05:01:14.215Z,949.94
2018-08-22T05:02:14.133Z,949.90
2018-08-22T05:03:14.026Z,949.88
2018-08-22T05:04:13.937Z,949.97
2018-08-22T05:05:13.852Z,949.92
2018-08-22T05:06:13.763Z,949.95
2018-08-22T05:07:13.686Z,949.94
2018-08-22T05:08:13.598Z,949.92
2018-08-22T05:09:13.488Z,949.89
2018-08-22T05:10:13.397Z,949.92
2018-08-22T05:11:13.314Z,949.90
2018-08-22T05:12:13.236Z,949.93
2018-08-22T05:13:13.128Z,949.93
2018-08-22T05:14:13.041Z,949.96
2018-08-22T05:15:12.951Z,949.93
2018-08-22T05:16:12.863Z,950.00
2018-08-22T05:17:12.786Z,949.94
2018-08-22T05:18:12.679Z,949.97
2018-08-22T05:19:12.592Z,949.99
2018-08-22T05:20:12.501Z,949.98
2018-08-22T05:21:12.416Z,949.91
2018-08-22T05:22:12.336Z,949.96
2018-08-22T05:23:12.232Z,949.99
2018-08-22T05:24:12.144Z,949.94
2018-08-22T05:25:12.057Z,950.01
2018-08-22T05:26:11.966Z,950.08
2018-08-22T05:27:11.889Z,950.06
2018-08-22T05:28:11.784Z,950.04
2018-08-22T05:29:11.697Z,950.09
2018-08-22T05:30:11.663Z,950.04
2018-08-22T05:31:11.514Z,950.04
2018-08-22T05:32:11.445Z,949.98
2018-08-22T05:33:11.338Z,950.02
2018-08-22T05:34:11.252Z,950.03
2018-08-22T05:35:11.157Z,950.03
2018-08-22T05:36:11.071Z,950.05
2018-08-22T05:37:10.997Z,950.01
2018-08-22T05:38:10.895Z,950.01
2018-08-22T05:39:10.800Z,949.98
2018-08-22T05:40:10.711Z,949.99
2018-08-22T05:41:10.625Z,950.00
2018-08-22T05:42:10.548Z,949.99
2018-08-22T05:43:10.447Z,950.02
2018-08-22T05:44:10.359Z,949.98
2018-08-22T05:45:10.267Z,949.96
2018-08-22T05:46:10.177Z,949.98
2018-08-22T05:47:10.105Z,949.99
2018-08-22T05:48:10.003Z,950.06
2018-08-22T05:49:09.948Z,950.05
2018-08-22T05:50:09.826Z,950.07
2018-08-22T05:51:09.731Z,950.06
2018-08-22T05:52:09.763Z,950.07
2018-08-22T05:53:09.562Z,950.08
2018-08-22T05:54:09.465Z,950.08
2018-08-22T05:55:09.378Z,950.09
2018-08-22T05:56:09.291Z,950.15
2018-08-22T05:57:09.218Z,950.13
2018-08-22T05:58:09.113Z,950.16
2018-08-22T05:59:09.119Z,950.11
2018-08-22T06:00:08.935Z,950.13
2018-08-22T06:01:08.847Z,950.18
2018-08-22T06:02:08.772Z,950.16
2018-08-22T06:03:08.670Z,950.14
2018-08-22T06:04:08.582Z,950.18
2018-08-22T06:05:08.492Z,950.23
2018-08-22T06:06:08.503Z,950.17
2018-08-22T06:07:08.335Z,950.19
2018-08-22T06:08:08.228Z,950.19
2018-08-22T06:09:08.157Z,950.19
2018-08-22T06:10:08.054Z,950.11
2018-08-22T06:11:07.960Z,950.17
2018-08-22T06:12:07.892Z,950.18
2018-08-22T06:13:07.895Z,950.21
2018-08-22T06:14:07.698Z,950.27
2018-08-22T06:15:07.608Z,950.19
2018-08-22T06:16:07.527Z,950.30
2018-08-22T06:17:07.449Z,950.20
2018-08-22T06:18:07.343Z,950.24
2018-08-22T06:19:07.256Z,950.30
2018-08-22T06:20:07.266Z,950.25
2018-08-22T06:21:07.080Z,950.20
2018-08-22T06:22:07.008Z,950.25
2018-08-22T06:23:06.902Z,950.18
2018-08-22T06:24:06.816Z,950.25
2018-08-22T06:25:06.727Z,950.33
2018-08-22T06:26:06.641Z,950.27
2018-08-22T06:27:06.671Z,950.28
2018-08-22T06:28:06.466Z,950.27
2018-08-22T06:29:06.377Z,950.27
2018-08-22T06:30:06.290Z,950.22
2018-08-22T06:31:06.201Z,950.25
2018-08-22T06:32:06.129Z,950.26
2018-08-22T06:33:06.049Z,950.29
2018-08-22T06:34:06.047Z,950.30
2018-08-22T06:35:05.849Z,950.32
2018-08-22T06:36:05.762Z,950.40
2018-08-22T06:37:05.689Z,950.40
2018-08-22T06:38:05.584Z,950.31
2018-08-22T06:39:05.497Z,950.31
2018-08-22T06:40:05.410Z,950.26
2018-08-22T06:41:05.425Z,950.33
2018-08-22T06:42:05.250Z,950.36
2018-08-22T06:43:05.147Z,951.52
2018-08-22T06:44:05.102Z,951.88
2018-08-22T06:45:04.975Z,954.32
2018-08-22T06:46:04.884Z,955.74
2018-08-22T06:47:04.800Z,955.27
2018-08-22T06:48:04.826Z,952.26
2018-08-22T06:49:04.647Z,955.14
2018-08-22T06:50:04.551Z,957.63
2018-08-22T06:51:04.447Z,957.45
2018-08-22T06:52:04.365Z,957.42
2018-08-22T06:53:04.288Z,950.87
2018-08-22T06:54:04.307Z,950.33
2018-08-22T06:55:04.100Z,950.47
2018-08-22T06:56:04.008Z,950.46
2018-08-22T06:57:03.988Z,956.62
2018-08-22T06:58:03.839Z,956.56
2018-08-22T06:59:03.751Z,957.71
2018-08-22T07:00:03.663Z,957.96
2018-08-22T07:01:03.580Z,957.13
2018-08-22T07:02:03.490Z,956.40
2018-08-22T07:03:03.419Z,958.29
2018-08-22T07:04:03.316Z,957.34
2018-08-22T07:05:03.229Z,955.24
2018-08-22T07:06:03.154Z,957.06
2018-08-22T07:07:03.059Z,955.87
2018-08-22T07:08:03.036Z,956.48
2018-08-22T07:09:02.887Z,956.47
2018-08-22T07:10:02.799Z,955.82
2018-08-22T07:11:02.713Z,956.30
2018-08-22T07:12:02.630Z,955.83
2018-08-22T07:13:02.558Z,957.51
2018-08-22T07:14:02.577Z,959.06
2018-08-22T07:15:02.371Z,956.95
2018-08-22T07:16:02.283Z,955.86
2018-08-22T07:17:02.201Z,950.66
2018-08-22T07:18:02.127Z,957.04
2018-08-22T07:19:02.030Z,956.15
2018-08-22T07:20:01.945Z,956.86
2018-08-22T07:21:02.057Z,957.47
2018-08-22T07:22:01.771Z,956.61
2018-08-22T07:23:01.703Z,956.36
2018-08-22T07:24:01.599Z,956.39
2018-08-22T07:25:01.521Z,956.70
2018-08-22T07:26:01.428Z,956.91
2018-08-22T07:27:01.346Z,957.11
2018-08-22T07:28:01.277Z,956.86
2018-08-22T07:29:01.173Z,957.13
2018-08-22T07:30:01.106Z,956.82
2018-08-22T07:31:01.007Z,955.98
2018-08-22T07:32:00.918Z,955.96
2018-08-22T07:33:00.853Z,956.80
2018-08-22T07:34:00.749Z,957.03
2018-08-22T07:35:00.668Z,955.79
2018-08-22T07:36:00.583Z,953.70
2018-08-22T07:37:00.498Z,951.30
2018-08-22T07:38:00.428Z,951.17
2018-08-22T07:39:00.329Z,951.18
2018-08-22T07:40:00.244Z,951.14
2018-08-22T07:41:00.163Z,952.10
2018-08-22T07:42:00.077Z,953.00
2018-08-22T07:43:00.013Z,955.12
2018-08-22T07:43:59.907Z,955.87
2018-08-22T07:44:59.820Z,955.99
2018-08-22T07:45:59.740Z,954.02
2018-08-22T07:46:59.657Z,955.65
2018-08-22T07:47:59.687Z,955.48
2018-08-22T07:48:59.488Z,954.98
2018-08-22T07:49:59.408Z,954.86
2018-08-22T07:50:59.331Z,955.00
2018-08-22T07:51:59.233Z,954.67
2018-08-22T07:52:59.165Z,953.44
2018-08-22T07:53:59.191Z,953.18
2018-08-22T07:54:58.982Z,951.94
2018-08-22T07:55:58.898Z,954.34
2018-08-22T07:56:58.818Z,953.54
2018-08-22T07:57:58.752Z,954.78
2018-08-22T07:58:58.653Z,954.75
2018-08-22T07:59:58.608Z,952.49
2018-08-22T08:00:58.480Z,951.02
2018-08-22T08:01:58.554Z,953.38
2018-08-22T08:02:58.333Z,954.17
2018-08-22T08:03:58.231Z,954.29
2018-08-22T08:04:58.149Z,954.83
2018-08-22T08:05:58.065Z,955.22
2018-08-22T08:06:57.990Z,956.09
2018-08-22T08:07:57.917Z,958.60
2018-08-22T08:08:57.819Z,961.44
2018-08-22T08:09:57.736Z,961.04
2018-08-22T08:10:57.666Z,958.88
2018-08-22T08:11:57.567Z,958.46
2018-08-22T08:12:57.507Z,958.33
2018-08-22T08:13:57.400Z,957.91
2018-08-22T08:14:57.413Z,958.54
2018-08-22T08:15:57.235Z,956.83
2018-08-22T08:16:57.160Z,954.33
2018-08-22T08:17:57.087Z,953.23
2018-08-22T08:18:56.988Z,953.04
2018-08-22T08:19:56.921Z,953.12
2018-08-22T08:20:56.823Z,953.58
2018-08-22T08:21:56.746Z,954.46
2018-08-22T08:22:56.676Z,955.08
2018-08-22T08:23:56.608Z,954.69
2018-08-22T08:24:56.498Z,954.32
2018-08-22T08:25:56.415Z,953.99
2018-08-22T08:26:56.330Z,953.90
2018-08-22T08:27:56.268Z,953.35
2018-08-22T08:28:56.168Z,952.98
2018-08-22T08:29:56.089Z,952.60
2018-08-22T08:30:56.008Z,952.22
2018-08-22T08:31:55.925Z,951.95
2018-08-22T08:32:55.848Z,951.80
2018-08-22T08:33:55.779Z,951.66
2018-08-22T08:34:55.681Z,951.54
2018-08-22T08:35:55.607Z,951.41
2018-08-22T08:36:55.521Z,951.31
2018-08-22T08:37:55.444Z,951.33
2018-08-22T08:38:55.376Z,951.25
2018-08-22T08:39:55.279Z,951.18
2018-08-22T08:40:55.241Z,951.15
2018-08-22T08:41:55.219Z,951.14
2018-08-22T08:42:55.040Z,951.16
2018-08-22T08:43:54.972Z,951.09
2018-08-22T08:44:54.880Z,951.07
2018-08-22T08:45:54.800Z,951.02
2018-08-22T08:46:54.722Z,951.02
2018-08-22T08:47:54.640Z,951.00
2018-08-22T08:48:54.584Z,950.97
2018-08-22T08:49:54.476Z,950.89
2018-08-22T08:50:54.395Z,950.91
2018-08-22T08:51:54.319Z,950.85
2018-08-22T08:52:54.239Z,950.86
2018-08-22T08:53:54.174Z,950.83
2018-08-22T08:54:54.076Z,950.82
2018-08-22T08:55:53.999Z,950.76
2018-08-22T08:56:53.916Z,950.71
2018-08-22T08:57:53.835Z,950.67
2018-08-22T08:58:53.797Z,950.68
2018-08-22T08:59:53.677Z,950.71
2018-08-22T09:00:53.599Z,950.64
2018-08-22T09:01:53.518Z,950.70
2018-08-22T09:02:53.438Z,950.67
2018-08-22T09:03:53.447Z,950.65
2018-08-22T09:04:53.279Z,950.68
2018-08-22T09:05:53.199Z,950.70
2018-08-22T09:06:53.159Z,950.70
2018-08-22T09:07:53.041Z,950.74
2018-08-22T09:08:53.080Z,950.65
2018-08-22T09:09:52.902Z,950.66
2018-08-22T09:10:52.841Z,950.64
2018-08-22T09:11:52.725Z,950.60
2018-08-22T09:12:52.648Z,950.62
2018-08-22T09:13:52.583Z,950.60
2018-08-22T09:14:52.489Z,950.68
2018-08-22T09:15:52.516Z,950.66
2018-08-22T09:16:52.333Z,950.59
2018-08-22T09:17:52.285Z,950.59
2018-08-22T09:18:52.193Z,950.58
2018-08-22T09:19:52.094Z,950.57
2018-08-22T09:20:52.017Z,950.52
2018-08-22T09:21:51.937Z,950.55
2018-08-22T09:22:51.856Z,950.58
2018-08-22T09:23:51.796Z,950.55
2018-08-22T09:24:51.706Z,950.57
2018-08-22T09:25:51.621Z,950.61
2018-08-22T09:26:51.546Z,950.63
2018-08-22T09:27:51.469Z,950.69
2018-08-22T09:28:51.408Z,950.64
2018-08-22T09:29:51.313Z,950.64
2018-08-22T09:30:51.231Z,950.64
2018-08-22T09:31:51.155Z,950.66
2018-08-22T09:32:51.075Z,950.66
2018-08-22T09:33:51.013Z,950.60
2018-08-22T09:34:50.919Z,950.57
2018-08-22T09:35:50.842Z,950.49
2018-08-22T09:36:50.769Z,950.51
2018-08-22T09:37:50.682Z,950.50
2018-08-22T09:38:50.640Z,950.47
2018-08-22T09:39:50.559Z,950.43
2018-08-22T09:40:50.453Z,950.47
2018-08-22T09:41:50.382Z,950.40
2018-08-22T09:42:50.411Z,950.36
2018-08-22T09:43:50.237Z,950.38
2018-08-22T09:44:50.158Z,950.42
2018-08-22T09:45:50.068Z,950.35
2018-08-22T09:46:50.024Z,950.35
2018-08-22T09:47:49.907Z,950.33
2018-08-22T09:48:49.857Z,950.32
2018-08-22T09:49:49.872Z,950.33
2018-08-22T09:50:49.725Z,950.32
2018-08-22T09:51:49.598Z,950.37
2018-08-22T09:52:49.520Z,950.38
2018-08-22T09:53:49.464Z,950.39
2018-08-22T09:54:49.368Z,950.34
2018-08-22T09:55:49.293Z,950.44
2018-08-22T09:56:49.312Z,950.45
2018-08-22T09:57:49.136Z,950.40
2018-08-22T09:58:49.076Z,950.44
2018-08-22T09:59:49.013Z,950.41
2018-08-22T10:00:49.063Z,950.45
2018-08-22T10:01:48.834Z,950.44
2018-08-22T10:02:48.754Z,950.46
2018-08-22T10:03:48.793Z,950.45
2018-08-22T10:04:48.600Z,950.44
2018-08-22T10:05:48.520Z,950.43
2018-08-22T10:06:48.611Z,950.45
2018-08-22T10:07:48.368Z,950.42
2018-08-22T10:08:48.337Z,950.43
2018-08-22T10:09:48.254Z,950.41
2018-08-22T10:10:48.314Z,950.44
2018-08-22T10:11:48.062Z,950.44
2018-08-22T10:12:47.985Z,950.46
2018-08-22T10:13:47.926Z,950.39
2018-08-22T10:14:47.836Z,950.45
2018-08-22T10:15:47.758Z,950.45
2018-08-22T10:16:47.681Z,950.43
2018-08-22T10:17:47.702Z,950.43
2018-08-22T10:18:47.527Z,950.43
2018-08-22T10:19:47.551Z,950.40
2018-08-22T10:20:47.373Z,950.42
2018-08-22T10:21:47.298Z,950.40
2018-08-22T10:22:47.224Z,950.41
2018-08-22T10:23:47.165Z,950.44
2018-08-22T10:24:47.072Z,950.45
2018-08-22T10:25:46.992Z,950.44
2018-08-22T10:26:46.923Z,950.43
2018-08-22T10:27:46.845Z,950.45
2018-08-22T10:28:46.765Z,950.44
2018-08-22T10:29:46.704Z,950.44
2018-08-22T10:30:46.614Z,950.46
2018-08-22T10:31:46.635Z,950.45
2018-08-22T10:32:46.519Z,950.48
2018-08-22T10:33:46.383Z,950.47
2018-08-22T10:34:46.322Z,950.45
2018-08-22T10:35:46.236Z,950.48
2018-08-22T10:36:46.164Z,950.48
2018-08-22T10:37:46.074Z,950.50
2018-08-22T10:38:46.001Z,950.44
2018-08-22T10:39:45.941Z,950.48
2018-08-22T10:40:45.849Z,950.48
2018-08-22T10:41:45.785Z,950.47
2018-08-22T10:42:45.697Z,950.44
2018-08-22T10:43:45.617Z,950.46
2018-08-22T10:44:45.558Z,950.49
2018-08-22T10:45:45.466Z,949.99
2018-08-22T10:46:45.388Z,949.81
2018-08-22T10:47:45.312Z,949.69
2018-08-22T10:48:45.240Z,949.68
2018-08-22T10:49:45.173Z,949.77
2018-08-22T10:50:45.175Z,949.83
2018-08-22T10:51:45.005Z,950.19
2018-08-22T10:52:44.931Z,949.79
2018-08-22T10:53:44.864Z,949.90
2018-08-22T10:54:44.792Z,949.70
2018-08-22T10:55:44.704Z,949.85
2018-08-22T10:56:44.621Z,950.49
2018-08-22T10:57:44.543Z,949.62
2018-08-22T10:58:44.466Z,949.58
2018-08-22T10:59:44.406Z,949.94
2018-08-22T11:00:44.315Z,949.74
2018-08-22T11:01:44.233Z,950.50
2018-08-22T11:02:44.157Z,950.44
2018-08-22T11:03:44.081Z,950.45
2018-08-22T11:04:44.017Z,950.44
2018-08-22T11:05:44.028Z,950.45
2018-08-22T11:06:43.846Z,950.40
2018-08-22T11:07:43.768Z,950.34
2018-08-22T11:08:43.695Z,950.30
2018-08-22T11:09:43.644Z,950.31
2018-08-22T11:10:43.541Z,950.31
2018-08-22T11:11:43.461Z,950.28
2018-08-22T11:12:43.383Z,949.89
2018-08-22T11:13:43.312Z,949.51
2018-08-22T11:14:43.249Z,949.71
2018-08-22T11:15:43.167Z,950.19
2018-08-22T11:16:43.084Z,950.20
2018-08-22T11:17:43.004Z,949.48
2018-08-22T11:18:42.928Z,949.57
2018-08-22T11:19:42.868Z,949.84
2018-08-22T11:20:42.779Z,950.05
2018-08-22T11:21:42.697Z,949.84
2018-08-22T11:22:42.626Z,949.45
2018-08-22T11:23:42.547Z,949.45
2018-08-22T11:24:42.488Z,949.47
2018-08-22T11:25:42.394Z,949.46
2018-08-22T11:26:42.317Z,949.94
2018-08-22T11:27:42.239Z,949.63
2018-08-22T11:28:42.165Z,949.46
2018-08-22T11:29:42.101Z,949.39
2018-08-22T11:30:42.009Z,949.37
2018-08-22T11:31:41.933Z,949.36
2018-08-22T11:32:41.960Z,949.90
2018-08-22T11:33:41.797Z,949.85
2018-08-22T11:34:41.720Z,949.41
2018-08-22T11:35:41.631Z,949.38
2018-08-22T11:36:41.550Z,949.41
2018-08-22T11:37:41.471Z,949.39
2018-08-22T11:38:41.395Z,949.82
2018-08-22T11:39:41.333Z,949.87
2018-08-22T11:40:41.240Z,949.87
2018-08-22T11:41:41.159Z,949.50
2018-08-22T11:42:41.084Z,949.73
2018-08-22T11:43:41.010Z,949.84
2018-08-22T11:44:40.946Z,949.83
2018-08-22T11:45:40.871Z,949.82
2018-08-22T11:46:40.940Z,949.85
2018-08-22T11:47:40.697Z,949.79
2018-08-22T11:48:40.621Z,949.78
2018-08-22T11:49:40.560Z,949.76
2018-08-22T11:50:40.466Z,949.73
2018-08-22T11:51:40.390Z,949.67
2018-08-22T11:52:40.311Z,949.27
2018-08-22T11:53:40.236Z,949.27
2018-08-22T11:54:40.177Z,949.51
2018-08-22T11:55:40.085Z,949.62
2018-08-22T11:56:40.006Z,949.74
2018-08-22T11:57:39.928Z,949.71
2018-08-22T11:58:39.855Z,949.66
2018-08-22T11:59:39.797Z,949.66
2018-08-22T12:00:39.701Z,949.23
2018-08-22T12:01:39.622Z,949.23
2018-08-22T12:02:39.546Z,949.30
2018-08-22T12:03:39.473Z,949.58
2018-08-22T12:04:39.410Z,949.54
2018-08-22T12:05:39.321Z,949.21
2018-08-22T12:06:39.243Z,949.37
2018-08-22T12:07:39.165Z,949.22
2018-08-22T12:08:39.086Z,949.13
2018-08-22T12:09:39.013Z,949.11
2018-08-22T12:10:38.991Z,949.05
2018-08-22T12:11:38.878Z,949.01
2018-08-22T12:12:38.792Z,948.96
2018-08-22T12:13:38.704Z,948.97
2018-08-22T12:14:38.638Z,948.97
2018-08-22T12:15:38.568Z,948.99
2018-08-22T12:16:38.473Z,949.04
2018-08-22T12:17:38.398Z,949.02
2018-08-22T12:18:38.321Z,949.47
2018-08-22T12:19:38.244Z,949.50
2018-08-22T12:20:38.183Z,949.11
2018-08-22T12:21:38.091Z,949.07
2018-08-22T12:22:38.009Z,949.49
2018-08-22T12:23:37.934Z,949.51
2018-08-22T12:24:37.856Z,949.50
2018-08-22T12:25:37.791Z,949.41
2018-08-22T12:26:37.699Z,949.00
2018-08-22T12:27:37.621Z,948.98